Time;durP1;ratioP1;P1;durP2;ratioP2;P2;SDS_P1;SDS_P2;PMS_P1;PMS_P2;Temp;Humidity;BMP_temperature;BMP_pressure;BME280_temperature;BME280_humidity;BME280_pressure;Samples;Min_cycle;Max_cycle;Signal;HPM_P1;HPM_P2
2022/10/10 00:01:15;;;;;;;16.38;11.15;;;;;;;4.98;100.00;101484.28;5013327;28;20088;-82
2022/10/10 00:03:41;;;;;;;17.35;11.60;;;;;;;5.06;100.00;101503.66;5013191;28;20118;-80
2022/10/10 00:06:07;;;;;;;18.33;11.25;;;;;;;5.08;100.00;101501.03;4995721;28;20025;-79
2022/10/10 00:08:33;;;;;;;17.65;11.95;;;;;;;5.08;100.00;101493.34;5013345;28;20109;-82
2022/10/10 00:10:58;;;;;;;15.90;11.10;;;;;;;4.84;100.00;101465.06;5013034;28;20580;-81
2022/10/10 00:13:23;;;;;;;15.85;10.75;;;;;;;4.96;100.00;101479.19;4994774;28;20547;-81
2022/10/10 00:15:49;;;;;;;17.33;11.15;;;;;;;5.08;100.00;101495.91;4995485;28;20770;-78
2022/10/10 00:18:15;;;;;;;17.23;11.20;;;;;;;4.83;100.00;101457.41;5013038;28;20109;-81
2022/10/10 00:20:40;;;;;;;20.05;12.05;;;;;;;5.07;100.00;101495.06;5013262;28;20112;-79
2022/10/10 00:23:05;;;;;;;15.98;11.48;;;;;;;4.92;100.00;101466.53;5013161;28;20058;-80
2022/10/10 00:25:31;;;;;;;15.68;10.70;;;;;;;4.93;100.00;101473.34;5013141;28;20064;-82
2022/10/10 00:28:00;;;;;;;17.75;11.70;;;;;;;4.84;100.00;101462.50;5012662;28;20038;-81
2022/10/10 00:30:25;;;;;;;17.02;11.48;;;;;;;5.03;100.00;101490.94;5012976;28;20056;-81
2022/10/10 00:32:50;;;;;;;17.83;10.93;;;;;;;5.03;100.00;101485.00;5013130;28;20430;-79
2022/10/10 00:35:16;;;;;;;15.85;10.82;;;;;;;4.96;100.00;101478.38;5013076;28;20286;-81
2022/10/10 00:37:41;;;;;;;17.75;10.25;;;;;;;4.98;100.00;101485.09;5013091;28;20466;-81
2022/10/10 00:40:07;;;;;;;17.92;10.52;;;;;;;4.96;100.00;101484.31;5012943;28;20034;-81
2022/10/10 00:42:32;;;;;;;17.90;10.77;;;;;;;4.81;100.00;101457.44;5012616;28;20058;-80
2022/10/10 00:45:37;;;;;;;17.98;10.00;;;;;;;4.98;100.00;101489.38;5012910;28;20017;-78
2022/10/10 00:48:03;;;;;;;14.68;10.35;;;;;;;4.98;100.00;101479.16;5012712;28;20038;-79
2022/10/10 00:50:30;;;;;;;20.60;10.35;;;;;;;4.85;100.00;101459.03;5012828;28;20045;-82
2022/10/10 00:52:56;;;;;;;18.67;11.05;;;;;;;4.85;100.00;101453.09;5015640;28;20040;-81
2022/10/10 00:55:22;;;;;;;16.98;10.65;;;;;;;4.82;100.00;101454.03;5016405;28;20033;-81
2022/10/10 00:57:49;;;;;;;16.60;11.20;;;;;;;4.86;100.00;101468.41;5016300;28;20033;-82
2022/10/10 01:00:14;;;;;;;16.02;11.45;;;;;;;4.90;100.00;101472.53;5016627;28;20096;-81
2022/10/10 01:02:40;;;;;;;17.55;11.20;;;;;;;4.86;100.00;101457.31;5016633;28;20541;-81
2022/10/10 01:05:06;;;;;;;13.98;10.32;;;;;;;4.87;100.00;101464.94;5016577;28;20053;-79
2022/10/10 01:07:32;;;;;;;15.70;11.10;;;;;;;4.87;100.00;101464.94;5016211;28;20026;-82
2022/10/10 01:10:01;;;;;;;16.65;10.65;;;;;;;4.75;100.00;101442.28;5016310;28;20120;-81
2022/10/10 01:13:03;;;;;;;15.70;10.50;;;;;;;4.87;100.00;101459.84;5015837;28;20547;-82
2022/10/10 01:15:45;;;;;;;17.30;11.77;;;;;;;4.70;100.00;101431.31;5016226;28;20041;-77
2022/10/10 01:18:32;;;;;;;18.33;11.15;;;;;;;4.84;100.00;101454.81;5016155;28;20512;-79
2022/10/10 01:21:22;;;;;;;16.40;11.52;;;;;;;4.46;100.00;101391.97;5016033;28;20037;-81
2022/10/10 01:24:19;;;;;;;16.02;10.70;;;;;;;4.83;100.00;101453.13;5016187;28;20442;-80
2022/10/10 01:27:03;;;;;;;15.30;10.77;;;;;;;4.54;100.00;101407.94;4998250;28;20091;-78
2022/10/10 01:29:34;;;;;;;16.77;11.40;;;;;;;4.81;100.00;101457.44;5016114;28;20033;-79
2022/10/10 01:32:07;;;;;;;15.20;10.85;;;;;;;4.67;100.00;101428.03;5016102;28;20096;-81
2022/10/10 01:34:38;;;;;;;18.73;11.50;;;;;;;4.83;100.00;101453.13;5015821;28;20058;-80
2022/10/10 01:37:16;;;;;;;19.80;11.38;;;;;;;4.72;100.00;101428.72;5015894;28;20113;-79
2022/10/10 01:39:59;;;;;;;17.35;11.23;;;;;;;4.74;100.00;101432.94;5015547;28;20442;-82
2022/10/10 01:42:30;;;;;;;16.40;11.13;;;;;;;4.84;100.00;101451.41;5015546;28;20022;-81
2022/10/10 01:44:55;;;;;;;17.75;10.73;;;;;;;4.66;100.00;101421.25;5015870;28;20477;-82
2022/10/10 01:47:22;;;;;;;15.82;10.38;;;;;;;4.80;100.00;101442.97;5015363;28;20057;-81
2022/10/10 01:49:54;;;;;;;16.70;11.40;;;;;;;4.46;100.00;101386.00;5015553;28;20029;-81
2022/10/10 01:52:33;;;;;;;19.20;11.48;;;;;;;4.60;100.00;101409.44;5015194;28;20164;-78
2022/10/10 01:55:42;;;;;;;20.45;12.43;;;;;;;4.80;100.00;101437.03;5015299;28;20520;-79
2022/10/10 01:58:35;;;;;;;16.73;11.15;;;;;;;4.82;100.00;101430.16;4916482;29;20585;-81
2022/10/10 02:01:44;;;;;;;21.00;12.82;;;;;;;4.83;100.00;101424.16;4916710;29;20043;-81
2022/10/10 02:04:28;;;;;;;19.30;11.55;;;;;;;4.72;100.00;101413.38;4878440;29;20064;-82
2022/10/10 02:07:17;;;;;;;18.05;11.65;;;;;;;4.82;100.00;101418.19;4878898;29;20044;-79
2022/10/10 02:09:45;;;;;;;20.63;11.93;;;;;;;4.84;100.00;101421.53;4879073;29;20055;-78
2022/10/10 02:12:12;;;;;;;16.08;11.23;;;;;;;4.70;100.00;101398.06;4878811;29;20489;-81
2022/10/10 02:14:43;;;;;;;22.23;12.60;;;;;;;4.68;100.00;101391.34;4878773;29;20045;-81
2022/10/10 02:17:11;;;;;;;17.10;11.18;;;;;;;4.80;100.00;101412.25;4878812;29;20037;-78
2022/10/10 02:19:41;;;;;;;19.85;11.93;;;;;;;4.80;100.00;101411.44;4878501;29;20127;-77
2022/10/10 02:22:08;;;;;;;19.00;12.00;;;;;;;4.81;100.00;101413.09;4878912;29;20043;-81
2022/10/10 02:24:33;;;;;;;18.23;12.63;;;;;;;4.29;100.00;101330.22;4878857;29;20109;-78
2022/10/10 02:27:06;;;;;;;18.05;11.85;;;;;;;4.67;100.00;101387.09;4862857;29;20045;-79
2022/10/10 02:29:35;;;;;;;18.73;12.82;;;;;;;4.79;100.00;101408.03;4878747;29;20095;-81
2022/10/10 02:32:14;;;;;;;18.20;12.63;;;;;;;4.80;100.00;101406.31;4878306;29;20037;-78
2022/10/10 02:34:46;;;;;;;20.42;12.35;;;;;;;4.70;100.00;101387.84;4929435;29;20036;-80
2022/10/10 02:37:14;;;;;;;19.83;13.02;;;;;;;4.77;100.00;101398.75;4949084;28;20062;-79
2022/10/10 02:39:48;;;;;;;18.17;12.32;;;;;;;4.76;100.00;101399.63;5014488;28;20022;-82
2022/10/10 02:42:17;;;;;;;17.75;11.75;;;;;;;4.69;100.00;101377.66;5014494;28;20026;-79
2022/10/10 02:44:44;;;;;;;19.02;11.98;;;;;;;4.63;100.00;101365.91;5014347;28;20026;-79
2022/10/10 02:47:09;;;;;;;19.98;12.60;;;;;;;4.76;100.00;101386.84;5014083;28;20489;-81
2022/10/10 02:49:34;;;;;;;19.52;12.88;;;;;;;4.71;100.00;101368.22;5014387;28;20032;-78
2022/10/10 02:52:00;;;;;;;21.33;12.93;;;;;;;4.77;100.00;101386.78;5014348;28;20055;-80
2022/10/10 02:54:25;;;;;;;22.27;13.00;;;;;;;4.75;100.00;101383.44;5014255;28;20036;-82
2022/10/10 02:56:51;;;;;;;21.58;12.48;;;;;;;4.41;100.00;101329.88;5014159;28;20092;-79
2022/10/10 02:59:16;;;;;;;19.92;12.02;;;;;;;4.72;100.00;101377.56;5014088;28;20022;-78
2022/10/10 03:01:42;;;;;;;20.48;12.32;;;;;;;4.66;100.00;101367.53;5013860;28;20524;-79
2022/10/10 03:04:08;;;;;;;19.20;11.98;;;;;;;4.65;100.00;101356.47;5014347;28;20026;-81
2022/10/10 03:06:33;;;;;;;19.13;12.13;;;;;;;4.75;100.00;101372.38;5014183;28;20056;-82
2022/10/10 03:08:58;;;;;;;19.63;12.48;;;;;;;4.78;100.00;101375.66;5013986;28;20057;-82
2022/10/10 03:11:24;;;;;;;21.02;12.55;;;;;;;4.65;100.00;101345.38;5014092;28;20073;-82
2022/10/10 03:13:49;;;;;;;20.38;12.98;;;;;;;4.78;100.00;101367.97;4982108;28;20038;-82
2022/10/10 03:16:14;;;;;;;19.95;12.48;;;;;;;4.58;100.00;101337.06;4993142;28;20027;-82
2022/10/10 03:18:40;;;;;;;20.08;13.23;;;;;;;4.63;100.00;101342.88;4994454;28;20034;-81
2022/10/10 03:21:05;;;;;;;20.40;12.68;;;;;;;4.68;100.00;101355.53;4994261;28;20105;-82
2022/10/10 03:23:31;;;;;;;19.38;12.85;;;;;;;4.76;100.00;101367.19;4994170;28;20101;-79
2022/10/10 03:25:56;;;;;;;21.10;12.23;;;;;;;4.77;100.00;101368.88;4994077;28;20041;-79
2022/10/10 03:28:22;;;;;;;20.48;12.23;;;;;;;4.79;100.00;101361.97;4994178;28;20030;-82
2022/10/10 03:30:47;;;;;;;19.40;12.93;;;;;;;4.78;100.00;101367.16;4993878;28;20378;-79
2022/10/10 03:33:13;;;;;;;19.92;12.63;;;;;;;4.78;100.00;101365.44;4993957;28;20038;-82
2022/10/10 03:35:39;;;;;;;18.40;12.25;;;;;;;4.63;100.00;101336.94;4994235;28;20034;-82
2022/10/10 03:38:05;;;;;;;17.92;12.20;;;;;;;4.77;100.00;101370.59;4994212;28;20026;-82
2022/10/10 03:40:30;;;;;;;18.77;12.15;;;;;;;4.54;100.00;101331.19;4994108;28;20027;-82
2022/10/10 03:42:56;;;;;;;19.90;12.48;;;;;;;4.51;100.00;101328.72;4994087;28;20046;-81
2022/10/10 03:45:21;;;;;;;17.52;11.25;;;;;;;4.62;100.00;101356.53;4993705;28;20022;-82
2022/10/10 03:47:47;;;;;;;19.95;11.88;;;;;;;4.69;100.00;101368.25;4993608;28;20046;-82
2022/10/10 03:50:12;;;;;;;17.70;12.30;;;;;;;4.52;100.00;101350.88;4994016;28;20049;-82
2022/10/10 03:52:38;;;;;;;18.30;12.38;;;;;;;4.64;100.00;101365.00;4993664;28;20022;-82
2022/10/10 03:55:04;;;;;;;17.15;11.75;;;;;;;4.58;100.00;101368.56;4976409;28;20030;-82
2022/10/10 03:57:29;;;;;;;20.63;12.13;;;;;;;4.43;100.00;101334.97;4993710;28;20030;-82
2022/10/10 03:59:55;;;;;;;19.95;12.32;;;;;;;4.32;100.00;101325.84;4993680;28;20031;-82
2022/10/10 04:02:20;;;;;;;17.25;11.88;;;;;;;4.57;100.00;101366.06;4993647;28;20053;-81
2022/10/10 04:04:45;;;;;;;19.73;12.77;;;;;;;4.49;100.00;101355.22;4993902;28;20386;-82
2022/10/10 04:07:10;;;;;;;20.05;11.75;;;;;;;4.35;100.00;101339.47;4993877;28;20074;-82
2022/10/10 04:09:36;;;;;;;20.30;12.15;;;;;;;4.47;100.00;101360.38;4993787;28;20101;-80
2022/10/10 04:12:01;;;;;;;18.75;11.82;;;;;;;4.49;100.00;101357.78;4993435;28;20359;-82
2022/10/10 04:14:26;;;;;;;16.70;12.25;;;;;;;4.49;100.00;101362.91;4993544;28;20476;-81
2022/10/10 04:16:52;;;;;;;20.08;12.45;;;;;;;4.46;100.00;101363.84;4993392;28;20530;-81
2022/10/10 04:19:17;;;;;;;19.73;12.25;;;;;;;4.41;100.00;101352.88;4993459;28;20034;-81
2022/10/10 04:21:43;;;;;;;21.77;13.48;;;;;;;4.36;100.00;101366.69;4993487;28;20517;-81
2022/10/10 04:24:09;;;;;;;21.48;13.20;;;;;;;4.32;100.00;101358.25;4993449;28;20042;-82
2022/10/10 04:26:34;;;;;;;21.40;12.40;;;;;;;4.15;100.00;101338.31;4994280;28;20019;-79
2022/10/10 04:29:00;;;;;;;17.75;12.23;;;;;;;4.29;100.00;101361.75;4997410;28;20042;-82
2022/10/10 04:31:26;;;;;;;20.73;12.57;;;;;;;4.22;100.00;101347.44;4997317;28;20033;-81
2022/10/10 04:33:51;;;;;;;19.10;12.90;;;;;;;4.24;100.00;101363.63;4997143;28;20041;-82
2022/10/10 04:36:19;;;;;;;19.10;13.52;;;;;;;4.21;100.00;101357.72;4997522;28;20137;-82
2022/10/10 04:38:44;;;;;;;19.50;12.75;;;;;;;3.89;100.00;101320.28;4997443;28;20429;-80
2022/10/10 04:41:10;;;;;;;19.17;12.75;;;;;;;4.04;100.00;101348.00;4997089;28;20034;-78
2022/10/10 04:43:36;;;;;;;20.23;12.52;;;;;;;3.91;100.00;101329.59;4997267;28;20363;-82
2022/10/10 04:46:02;;;;;;;22.48;12.95;;;;;;;4.09;100.00;101361.47;4996984;28;20042;-81
2022/10/10 04:48:27;;;;;;;19.95;12.60;;;;;;;4.02;100.00;101358.22;4997020;28;20065;-81
2022/10/10 04:50:55;;;;;;;17.35;11.90;;;;;;;4.01;100.00;101365.94;4996796;28;20034;-82
2022/10/10 04:53:21;;;;;;;17.88;13.02;;;;;;;3.95;100.00;101361.03;4997169;28;20105;-82
2022/10/10 04:55:46;;;;;;;18.33;12.38;;;;;;;3.87;100.00;101355.28;4997092;28;20443;-81
2022/10/10 04:58:12;;;;;;;18.98;12.27;;;;;;;3.88;100.00;101359.50;4997229;28;20019;-82
2022/10/10 05:00:38;;;;;;;18.83;12.35;;;;;;;3.87;100.00;101352.72;4996729;28;20022;-81
2022/10/10 05:03:04;;;;;;;20.73;13.27;;;;;;;3.74;100.00;101340.28;4996706;28;20110;-82
2022/10/10 05:05:30;;;;;;;19.67;12.88;;;;;;;3.83;100.00;101353.66;4996663;28;20117;-80
2022/10/10 05:07:55;;;;;;;19.85;12.68;;;;;;;3.74;100.00;101345.38;4996586;28;20037;-81
2022/10/10 05:10:20;;;;;;;18.08;13.35;;;;;;;3.80;100.00;101352.03;4996705;28;20022;-82
2022/10/10 05:12:45;;;;;;;19.52;12.68;;;;;;;3.78;100.00;101346.13;4996691;28;20117;-79
2022/10/10 05:15:11;;;;;;;22.65;13.88;;;;;;;3.73;100.00;101330.91;4996799;28;20049;-80
2022/10/10 05:17:36;;;;;;;20.90;13.70;;;;;;;3.76;100.00;101342.78;4996372;28;20056;-79
2022/10/10 05:20:02;;;;;;;20.70;14.02;;;;;;;3.53;100.00;101306.78;4996504;28;20030;-81
2022/10/10 05:22:27;;;;;;;19.60;13.02;;;;;;;3.50;100.00;101305.16;4996194;28;20084;-81
2022/10/10 05:24:53;;;;;;;18.75;12.68;;;;;;;3.49;100.00;101306.03;4996587;28;20077;-80
2022/10/10 05:27:18;;;;;;;23.95;13.50;;;;;;;3.62;100.00;101335.47;4996413;28;20492;-82
2022/10/10 05:29:43;;;;;;;20.00;13.48;;;;;;;3.57;100.00;101337.31;4996597;28;20061;-80
2022/10/10 05:32:08;;;;;;;17.90;12.70;;;;;;;3.63;100.00;101346.53;4978551;28;20129;-80
2022/10/10 05:34:34;;;;;;;19.63;12.90;;;;;;;3.61;100.00;101356.78;4996322;28;20044;-79
2022/10/10 05:36:59;;;;;;;19.80;13.02;;;;;;;3.50;100.00;101334.97;4996003;28;20492;-80
2022/10/10 05:39:24;;;;;;;23.45;12.88;;;;;;;3.60;100.00;101352.56;4995079;28;20034;-80
2022/10/10 05:41:50;;;;;;;19.98;12.40;;;;;;;3.59;100.00;101353.44;4996359;28;20101;-81
2022/10/10 05:44:15;;;;;;;22.02;12.80;;;;;;;3.56;100.00;101353.53;4996337;28;20053;-80
2022/10/10 05:46:40;;;;;;;19.10;13.57;;;;;;;3.60;100.00;101355.09;4995755;28;20618;-79
2022/10/10 05:49:06;;;;;;;21.92;12.85;;;;;;;3.62;100.00;101357.63;4995990;28;20033;-80
2022/10/10 05:51:31;;;;;;;18.23;12.77;;;;;;;3.50;100.00;101323.03;4995804;28;20466;-80
2022/10/10 05:53:56;;;;;;;22.92;13.30;;;;;;;3.59;100.00;101337.28;4995804;28;20045;-82
2022/10/10 05:56:22;;;;;;;20.58;12.77;;;;;;;3.62;100.00;101352.50;4995859;28;20031;-80
2022/10/10 05:58:50;;;;;;;20.88;13.15;;;;;;;3.61;100.00;101340.63;5002572;23;20069;-82
2022/10/10 06:01:16;;;;;;;24.90;13.75;;;;;;;3.74;100.00;101358.16;4978109;28;20425;-81
2022/10/10 06:03:41;;;;;;;21.77;13.93;;;;;;;3.76;100.00;101345.34;4995599;28;20030;-81
2022/10/10 06:06:07;;;;;;;19.27;12.15;;;;;;;3.74;100.00;101354.78;4995790;28;20110;-81
2022/10/10 06:08:33;;;;;;;21.30;13.73;;;;;;;3.77;100.00;101353.84;4995666;28;20026;-81
2022/10/10 06:11:04;;;;;;;19.00;12.68;;;;;;;3.86;100.00;101349.31;4995891;28;20033;-80
2022/10/10 06:13:30;;;;;;;;;;;;;;;3.88;100.00;101352.69;4996107;28;20042;-81
2022/10/10 06:15:55;;;;;;;20.10;12.40;;;;;;;3.95;100.00;101355.91;4984717;28;20276;-81
2022/10/10 06:18:20;;;;;;;19.33;12.70;;;;;;;4.03;100.00;101359.06;5014933;28;20068;-79
2022/10/10 06:20:46;;;;;;;21.42;13.65;;;;;;;3.99;100.00;101352.38;5014935;28;20026;-81
2022/10/10 06:23:11;;;;;;;20.38;12.93;;;;;;;4.12;100.00;101365.66;5014829;28;20386;-81
2022/10/10 06:25:37;;;;;;;21.65;13.50;;;;;;;4.24;100.00;101367.88;5014849;28;20488;-79
2022/10/10 06:28:04;;;;;;;19.77;12.82;;;;;;;4.23;100.00;101368.78;5015019;28;20053;-81
2022/10/10 06:30:30;;;;;;;19.77;12.35;;;;;;;4.10;100.00;101331.63;5014848;28;20032;-82
2022/10/10 06:32:57;;;;;;;20.00;12.73;;;;;;;4.39;100.00;101364.03;5014495;28;20109;-79
2022/10/10 06:35:22;;;;;;;20.30;12.82;;;;;;;4.08;100.00;101318.06;5014567;28;20492;-80
2022/10/10 06:37:48;;;;;;;18.92;11.80;;;;;;;4.57;100.00;101368.63;5014697;28;20026;-79
2022/10/10 06:40:13;;;;;;;24.75;13.73;;;;;;;4.68;100.00;101370.88;5014617;28;20033;-79
2022/10/10 06:42:38;;;;;;;22.45;12.55;;;;;;;4.70;100.00;101356.31;5014791;28;20060;-79
2022/10/10 06:45:04;;;;;;;22.50;12.95;;;;;;;4.62;100.00;101330.94;4962621;28;20364;-76
2022/10/10 06:47:30;;;;;;;19.40;11.82;;;;;;;4.89;100.00;101349.75;4975498;28;20034;-79
2022/10/10 06:49:55;;;;;;;21.27;12.65;;;;;;;5.12;100.00;101372.06;4975099;28;20050;-80
2022/10/10 06:52:21;;;;;;;21.67;13.65;;;;;;;5.09;100.00;101349.94;4975073;28;20203;-79
2022/10/10 06:54:46;;;;;;;24.73;13.65;;;;;;;5.38;100.00;101384.88;4975382;28;20023;-82
2022/10/10 06:57:13;;;;;;;25.23;12.98;;;;;;;5.48;100.00;101382.84;4975338;28;20083;-78
2022/10/10 06:59:38;;;;;;;21.77;13.77;;;;;;;5.63;100.00;101378.94;4975094;28;20078;-79
2022/10/10 07:02:03;;;;;;;24.98;13.98;;;;;;;5.75;100.00;101381.91;4975126;28;20035;-79
2022/10/10 07:04:29;;;;;;;26.25;14.75;;;;;;;5.93;100.00;101370.25;4974859;28;20027;-81
2022/10/10 07:06:54;;;;;;;26.17;16.40;;;;;;;6.18;100.00;101374.47;4975301;28;20053;-80
2022/10/10 07:09:19;;;;;;;29.60;16.38;;;;;;;6.13;100.00;101343.88;4974926;28;20482;-76
2022/10/10 07:11:45;;;;;;;28.92;16.48;;;;;;;6.11;100.00;101332.03;4974993;28;20031;-80
2022/10/10 07:14:11;;;;;;;27.80;16.17;;;;;;;6.30;100.00;101340.72;4974699;28;20027;-79
2022/10/10 07:16:37;;;;;;;28.60;15.50;;;;;;;6.27;100.00;101310.88;4957715;28;20027;-80
2022/10/10 07:19:02;;;;;;;27.58;15.73;;;;;;;6.59;100.00;101345.59;4974689;28;20489;-81
2022/10/10 07:21:28;;;;;;;26.15;16.25;;;;;;;6.61;100.00;101330.97;4974849;28;20027;-81
2022/10/10 07:23:53;;;;;;;28.70;17.50;;;;;;;7.13;100.00;101382.84;4974600;28;20027;-78
2022/10/10 07:26:21;;;;;;;26.73;15.75;;;;;;;7.10;100.00;101353.88;4974703;28;20038;-79
2022/10/10 07:28:47;;;;;;;31.83;15.60;;;;;;;7.39;100.00;101371.53;4974545;28;20023;-80
2022/10/10 07:31:12;;;;;;;31.08;16.58;;;;;;;7.66;100.00;101386.69;4973479;28;20426;-76
2022/10/10 07:33:42;;;;;;;24.20;14.73;;;;;;;7.76;100.00;101367.38;4974511;28;20027;-80
2022/10/10 07:36:07;;;;;;;26.70;15.27;;;;;;;7.86;100.00;101354.97;4974431;28;20037;-80
2022/10/10 07:38:33;;;;;;;24.67;14.43;;;;;;;8.23;100.00;101391.06;4974582;28;20022;-81
2022/10/10 07:40:58;;;;;;;21.02;13.65;;;;;;;8.46;100.00;101382.38;4974271;28;20069;-83
2022/10/10 07:43:24;;;;;;;21.05;12.68;;;;;;;8.43;100.00;101363.63;4956903;28;20042;-81
2022/10/10 07:45:49;;;;;;;19.00;13.32;;;;;;;8.86;100.00;101395.97;4974441;28;20027;-81
2022/10/10 07:48:15;;;;;;;20.85;11.75;;;;;;;8.82;100.00;101374.66;4974294;28;20030;-80
2022/10/10 07:50:41;;;;;;;18.55;10.75;;;;;;;9.13;100.00;101407.53;4974465;28;20034;-82
2022/10/10 07:53:07;;;;;;;17.52;10.25;;;;;;;9.28;100.00;101420.59;4974291;28;20030;-79
2022/10/10 07:55:33;;;;;;;18.38;10.55;;;;;;;9.21;100.00;101386.56;4974251;28;20033;-81
2022/10/10 07:58:01;;;;;;;19.63;10.10;;;;;;;9.39;100.00;101380.50;4974276;28;20027;-82
2022/10/10 08:00:27;;;;;;;18.90;10.05;;;;;;;9.72;100.00;101418.41;4974000;28;20038;-81
2022/10/10 08:02:52;;;;;;;16.55;10.25;;;;;;;9.70;100.00;101400.44;4973884;28;20035;-82
2022/10/10 08:05:17;;;;;;;19.55;9.85;;;;;;;9.81;100.00;101402.47;4974210;28;20410;-83
2022/10/10 08:07:43;;;;;;;18.33;10.93;;;;;;;10.02;100.00;101427.19;4974154;28;20153;-82
2022/10/10 08:10:08;;;;;;;17.45;10.32;;;;;;;10.10;100.00;101423.38;4956430;28;20058;-83
2022/10/10 08:12:34;;;;;;;17.15;9.70;;;;;;;10.16;100.00;101428.25;4956343;28;20043;-81
2022/10/10 08:15:00;;;;;;;20.90;10.55;;;;;;;9.94;100.00;101379.50;4974110;28;20030;-81
2022/10/10 08:17:25;;;;;;;14.63;10.18;;;;;;;10.01;100.00;101378.25;4956456;28;20037;-80
2022/10/10 08:19:51;;;;;;;13.30;9.30;;;;;;;10.27;100.00;101405.31;4973926;28;20051;-81
2022/10/10 08:22:16;;;;;;;16.92;9.10;;;;;;;10.34;100.00;101409.25;4991080;28;20061;-79
2022/10/10 08:24:41;;;;;;;17.80;10.32;;;;;;;10.36;100.00;101410.00;4993607;28;20022;-80
2022/10/10 08:27:07;;;;;;;17.52;9.50;;;;;;;10.36;100.00;101404.84;4993467;28;20023;-81
2022/10/10 08:29:32;;;;;;;19.98;9.00;;;;;;;10.33;100.00;101415.34;4993457;28;20023;-82
2022/10/10 08:31:57;;;;;;;16.00;9.50;;;;;;;10.27;100.00;101413.91;4993488;28;20073;-80
2022/10/10 08:34:44;;;;;;;17.98;8.95;;;;;;;10.25;100.00;101423.47;4993263;28;20026;-81
2022/10/10 08:39:34;;;;;;;14.82;9.20;;;;;;;10.33;100.00;101417.91;4980094;23;20055;-80
2022/10/10 08:42:02;;;;;;;14.40;9.73;;;;;;;10.42;100.00;101419.16;4973665;28;20038;-80
2022/10/10 08:44:40;;;;;;;16.48;9.27;;;;;;;10.41;100.00;101397.66;4956552;28;20431;-80
2022/10/10 08:47:14;;;;;;;15.45;9.30;;;;;;;10.45;100.00;101388.88;4973864;28;20050;-80
2022/10/10 08:49:45;;;;;;;17.48;10.52;;;;;;;10.81;100.00;101423.94;4973875;28;20039;-80
2022/10/10 08:52:29;;;;;;;14.85;10.18;;;;;;;10.96;100.00;101424.88;4973464;28;20133;-80
2022/10/10 08:54:56;;;;;;;14.30;9.38;;;;;;;11.03;100.00;101405.53;4973964;28;20030;-82
2022/10/10 09:00:14;;;;;;;15.95;8.60;;;;;;;10.35;98.22;101243.13;5015131;23;20051;-83
2022/10/10 09:02:59;;;;;;;17.20;9.43;;;;;;;11.61;97.97;101417.75;4974904;28;20038;-82
2022/10/10 09:05:46;;;;;;;17.08;8.88;;;;;;;11.81;98.29;101425.22;4993094;28;20383;-83
2022/10/10 09:08:29;;;;;;;18.55;9.43;;;;;;;11.98;96.42;101427.63;4992964;28;20209;-82
2022/10/10 09:11:10;;;;;;;16.92;9.05;;;;;;;12.02;95.87;101404.97;4993217;28;20109;-81
2022/10/10 09:13:40;;;;;;;15.45;8.23;;;;;;;12.13;94.48;101393.97;4977583;28;20042;-80
2022/10/10 09:16:07;;;;;;;13.60;8.82;;;;;;;12.35;93.80;101418.47;4996642;28;20053;-80
2022/10/10 09:18:47;;;;;;;16.48;8.43;;;;;;;12.59;93.59;101430.88;4996410;28;20026;-80
2022/10/10 09:21:20;;;;;;;14.30;7.85;;;;;;;12.64;92.98;101419.28;4996111;28;20034;-80
2022/10/10 09:23:52;;;;;;;13.82;7.72;;;;;;;12.80;91.76;101395.00;4979099;28;20097;-80
2022/10/10 09:26:24;;;;;;;13.70;7.93;;;;;;;13.27;90.37;101441.25;4996401;28;20026;-80
2022/10/10 09:28:55;;;;;;;;;;;;;;;13.38;93.81;101441.41;4996890;28;20030;-81
2022/10/10 09:31:46;;;;;;;13.80;7.30;;;;;;;13.58;90.59;101450.47;4996333;28;19921;-82
2022/10/10 09:34:28;;;;;;;11.55;6.50;;;;;;;13.71;87.33;101445.31;4996031;28;20033;-81
2022/10/10 09:36:59;;;;;;;12.60;6.38;;;;;;;13.68;85.84;101424.75;4995837;28;20049;-79
2022/10/10 09:39:47;;;;;;;11.55;6.00;;;;;;;13.92;85.66;101453.44;4996179;28;20064;-81
2022/10/10 09:42:16;;;;;;;11.45;6.38;;;;;;;13.98;85.33;101450.44;4996024;28;20033;-80
2022/10/10 09:44:42;;;;;;;12.18;6.22;;;;;;;14.14;83.54;101458.00;4995960;28;20046;-80
2022/10/10 09:47:12;;;;;;;11.57;6.13;;;;;;;14.21;84.20;101460.09;4995906;28;20176;-80
2022/10/10 09:49:38;;;;;;;12.98;6.15;;;;;;;14.33;84.21;101445.41;4995827;28;20109;-80
2022/10/10 09:54:31;;;;;;;16.35;6.60;;;;;;;14.72;83.62;101469.63;5002318;23;20061;-80
2022/10/10 09:56:57;;;;;;;13.32;5.78;;;;;;;14.85;81.56;101465.22;4995856;28;20034;-79
2022/10/10 09:59:45;;;;;;;12.02;5.90;;;;;;;14.98;83.58;101468.59;4978353;28;20030;-80
2022/10/10 10:02:11;;;;;;;15.40;6.35;;;;;;;14.98;80.97;101459.97;4995604;28;20022;-79
2022/10/10 10:04:36;;;;;;;10.48;5.35;;;;;;;14.99;81.30;101462.47;4995796;28;20214;-80
2022/10/10 10:07:32;;;;;;;14.38;5.72;;;;;;;15.03;81.46;101465.66;4995610;28;20057;-81
2022/10/10 10:10:10;;;;;;;12.88;5.97;;;;;;;14.86;78.70;101452.13;4916439;29;20528;-79
2022/10/10 10:12:43;;;;;;;11.63;5.72;;;;;;;14.96;79.96;101467.06;4916451;29;20618;-80
2022/10/10 10:15:28;;;;;;;13.43;5.35;;;;;;;14.96;79.97;101467.06;4916483;29;20071;-80
2022/10/10 10:18:08;;;;;;;10.07;5.72;;;;;;;14.99;80.32;101469.44;4916361;29;20052;-80
2022/10/10 10:20:39;;;;;;;12.93;6.18;;;;;;;14.89;80.14;101457.09;4916086;29;20044;-80
2022/10/10 10:23:30;;;;;;;11.35;6.25;;;;;;;14.83;80.06;101460.09;4915224;29;20488;-80
2022/10/10 10:25:59;;;;;;;11.45;5.78;;;;;;;14.78;79.61;101477.00;4915910;29;20464;-80
2022/10/10 10:28:25;;;;;;;15.77;5.93;;;;;;;14.66;80.23;101463.09;4916243;29;20067;-79
2022/10/10 10:30:56;;;;;;;12.73;5.90;;;;;;;14.73;80.14;101473.88;4916041;29;20020;-80
2022/10/10 10:33:33;;;;;;;13.45;6.05;;;;;;;14.77;80.79;101476.16;4916173;29;20048;-80
2022/10/10 10:36:13;;;;;;;11.80;5.65;;;;;;;14.94;81.37;101474.94;4916074;29;20033;-80
2022/10/10 10:39:17;;;;;;;11.48;5.63;;;;;;;14.99;81.30;101469.44;4916283;29;20063;-78
2022/10/10 10:42:00;;;;;;;12.10;5.63;;;;;;;15.02;78.39;101480.44;4884754;29;20488;-76
2022/10/10 10:44:43;;;;;;;13.32;6.30;;;;;;;14.97;79.25;101468.72;4915984;29;20092;-79
2022/10/10 10:47:37;;;;;;;11.20;5.82;;;;;;;15.05;80.03;101480.25;4953089;28;20530;-80
2022/10/10 10:50:18;;;;;;;15.65;6.05;;;;;;;14.72;79.14;101449.63;4975325;28;20035;-79
2022/10/10 10:52:56;;;;;;;13.95;6.25;;;;;;;14.97;78.83;101500.75;4975040;28;20058;-80
2022/10/10 10:55:46;;;;;;;15.35;6.25;;;;;;;14.96;79.93;101498.28;4975417;28;20483;-76
2022/10/10 10:58:18;;;;;;;11.77;5.90;;;;;;;15.04;78.60;101507.16;4975142;28;20035;-80
2022/10/10 11:00:59;;;;;;;12.93;5.78;;;;;;;15.00;78.21;101495.34;4957839;28;20042;-78
2022/10/10 11:04:09;;;;;;;11.63;5.60;;;;;;;14.99;79.00;101498.06;4975168;28;20054;-79
2022/10/10 11:06:55;;;;;;;10.75;5.30;;;;;;;14.99;78.48;101506.69;4899617;29;20520;-78
2022/10/10 11:09:34;;;;;;;11.05;5.38;;;;;;;14.83;78.56;101504.31;4915628;29;20036;-79
2022/10/10 11:12:18;;;;;;;11.48;5.63;;;;;;;14.81;80.55;101516.59;4915621;29;20400;-81
2022/10/10 11:15:01;;;;;;;14.10;6.30;;;;;;;14.57;80.99;101487.13;4915272;29;20168;-80
2022/10/10 11:17:42;;;;;;;17.83;6.80;;;;;;;14.28;80.71;101450.13;4964416;23;20086;-79
2022/10/10 11:20:51;;;;;;;14.02;6.30;;;;;;;14.85;79.62;101535.44;4994301;28;20019;-78
2022/10/10 11:23:36;;;;;;;14.85;6.57;;;;;;;14.94;79.43;101542.56;4994174;28;20081;-79
2022/10/10 11:26:27;;;;;;;16.08;6.75;;;;;;;14.63;78.92;101491.88;4994154;28;20023;-80
2022/10/10 11:29:15;;;;;;;11.43;6.40;;;;;;;14.90;79.29;101526.34;4994049;28;20037;-79
2022/10/10 11:32:01;;;;;;;14.50;6.57;;;;;;;14.91;79.38;101522.00;4994046;28;20488;-78
2022/10/10 11:34:48;;;;;;;13.07;6.97;;;;;;;14.32;78.93;101417.78;4993868;28;20030;-82